sensor_id;sensor_type;location;lat;lon;timestamp;temperature;humidity
4910;DHT22;2470;49.868;8.660;2024-01-30T00:01:13;5.50;99.90
4910;DHT22;2470;49.868;8.660;2024-01-30T00:03:38;5.50;99.90
4910;DHT22;2470;49.868;8.660;2024-01-30T00:06:04;5.50;99.90
4910;DHT22;2470;49.868;8.660;2024-01-30T00:08:30;5.50;99.90
4910;DHT22;2470;49.868;8.660;2024-01-30T00:10:55;5.50;99.90
4910;DHT22;2470;49.868;8.660;2024-01-30T00:13:21;5.50;99.90
4910;DHT22;2470;49.868;8.660;2024-01-30T00:15:46;5.50;99.90
4910;DHT22;2470;49.868;8.660;2024-01-30T00:18:12;5.50;99.90
4910;DHT22;2470;49.868;8.660;2024-01-30T00:20:37;5.50;99.90
4910;DHT22;2470;49.868;8.660;2024-01-30T00:23:03;5.40;99.90
4910;DHT22;2470;49.868;8.660;2024-01-30T00:25:29;5.40;99.90
4910;DHT22;2470;49.868;8.660;2024-01-30T00:27:54;5.30;99.90
4910;DHT22;2470;49.868;8.660;2024-01-30T00:30:20;5.30;99.90
4910;DHT22;2470;49.868;8.660;2024-01-30T00:32:46;5.30;99.90
4910;DHT22;2470;49.868;8.660;2024-01-30T00:35:11;5.30;99.90
4910;DHT22;2470;49.868;8.660;2024-01-30T00:37:37;5.30;99.90
4910;DHT22;2470;49.868;8.660;2024-01-30T00:40:03;5.30;99.90
4910;DHT22;2470;49.868;8.660;2024-01-30T00:42:29;5.30;99.90
4910;DHT22;2470;49.868;8.660;2024-01-30T00:44:54;5.30;99.90
4910;DHT22;2470;49.868;8.660;2024-01-30T00:47:20;5.30;99.90
4910;DHT22;2470;49.868;8.660;2024-01-30T00:49:45;5.30;99.90
4910;DHT22;2470;49.868;8.660;2024-01-30T00:52:11;5.30;99.90
4910;DHT22;2470;49.868;8.660;2024-01-30T00:54:37;5.20;99.90
4910;DHT22;2470;49.868;8.660;2024-01-30T00:57:03;5.30;99.90
4910;DHT22;2470;49.868;8.660;2024-01-30T00:59:28;5.20;99.90
4910;DHT22;2470;49.868;8.660;2024-01-30T01:01:54;5.20;99.90
4910;DHT22;2470;49.868;8.660;2024-01-30T01:04:19;5.20;99.90
4910;DHT22;2470;49.868;8.660;2024-01-30T01:06:46;5.20;99.90
4910;DHT22;2470;49.868;8.660;2024-01-30T01:09:12;5.10;99.90
4910;DHT22;2470;49.868;8.660;2024-01-30T01:11:38;5.10;99.90
4910;DHT22;2470;49.868;8.660;2024-01-30T01:14:04;5.10;99.90
4910;DHT22;2470;49.868;8.660;2024-01-30T01:16:30;5.20;99.90
4910;DHT22;2470;49.868;8.660;2024-01-30T01:18:55;5.10;99.90
4910;DHT22;2470;49.868;8.660;2024-01-30T01:21:21;5.10;99.90
4910;DHT22;2470;49.868;8.660;2024-01-30T01:23:46;5.10;99.90
4910;DHT22;2470;49.868;8.660;2024-01-30T01:26:12;5.10;99.90
4910;DHT22;2470;49.868;8.660;2024-01-30T01:28:40;5.10;99.90
4910;DHT22;2470;49.868;8.660;2024-01-30T01:31:06;5.00;99.90
4910;DHT22;2470;49.868;8.660;2024-01-30T01:33:32;5.00;99.90
4910;DHT22;2470;49.868;8.660;2024-01-30T01:35:59;5.00;99.90
4910;DHT22;2470;49.868;8.660;2024-01-30T01:38:24;5.00;99.90
4910;DHT22;2470;49.868;8.660;2024-01-30T01:40:50;4.90;99.90
4910;DHT22;2470;49.868;8.660;2024-01-30T01:43:16;4.90;99.90
4910;DHT22;2470;49.868;8.660;2024-01-30T01:45:42;4.90;99.90
4910;DHT22;2470;49.868;8.660;2024-01-30T01:48:07;4.90;99.90
4910;DHT22;2470;49.868;8.660;2024-01-30T01:50:34;4.90;99.90
4910;DHT22;2470;49.868;8.660;2024-01-30T01:53:01;4.90;99.90
4910;DHT22;2470;49.868;8.660;2024-01-30T01:55:29;4.90;99.90
4910;DHT22;2470;49.868;8.660;2024-01-30T01:57:56;4.90;99.90
4910;DHT22;2470;49.868;8.660;2024-01-30T02:00:22;4.90;99.90
4910;DHT22;2470;49.868;8.660;2024-01-30T02:02:49;4.80;99.90
4910;DHT22;2470;49.868;8.660;2024-01-30T02:05:15;4.80;99.90
4910;DHT22;2470;49.868;8.660;2024-01-30T02:07:41;4.80;99.90
4910;DHT22;2470;49.868;8.660;2024-01-30T02:10:08;4.80;99.90
4910;DHT22;2470;49.868;8.660;2024-01-30T02:12:35;4.90;99.90
4910;DHT22;2470;49.868;8.660;2024-01-30T02:15:00;4.90;99.90
4910;DHT22;2470;49.868;8.660;2024-01-30T02:17:26;4.90;99.90
4910;DHT22;2470;49.868;8.660;2024-01-30T02:19:52;4.90;99.90
4910;DHT22;2470;49.868;8.660;2024-01-30T02:22:18;4.80;99.90
4910;DHT22;2470;49.868;8.660;2024-01-30T02:24:44;4.80;99.90
4910;DHT22;2470;49.868;8.660;2024-01-30T02:27:10;4.80;99.90
4910;DHT22;2470;49.868;8.660;2024-01-30T02:29:35;4.80;99.90
4910;DHT22;2470;49.868;8.660;2024-01-30T02:32:01;4.70;99.90
4910;DHT22;2470;49.868;8.660;2024-01-30T02:34:27;4.70;99.90
4910;DHT22;2470;49.868;8.660;2024-01-30T02:36:53;4.70;99.90
4910;DHT22;2470;49.868;8.660;2024-01-30T02:39:18;4.70;99.90
4910;DHT22;2470;49.868;8.660;2024-01-30T02:41:44;4.70;99.90
4910;DHT22;2470;49.868;8.660;2024-01-30T02:44:09;4.70;99.90
4910;DHT22;2470;49.868;8.660;2024-01-30T02:46:35;4.80;99.90
4910;DHT22;2470;49.868;8.660;2024-01-30T02:49:00;4.80;99.90
4910;DHT22;2470;49.868;8.660;2024-01-30T02:51:26;4.90;99.90
4910;DHT22;2470;49.868;8.660;2024-01-30T02:53:51;4.90;99.90
4910;DHT22;2470;49.868;8.660;2024-01-30T02:56:17;4.90;99.90
4910;DHT22;2470;49.868;8.660;2024-01-30T02:58:42;4.90;99.90
4910;DHT22;2470;49.868;8.660;2024-01-30T03:01:08;4.90;99.90
4910;DHT22;2470;49.868;8.660;2024-01-30T03:03:33;4.90;99.90
4910;DHT22;2470;49.868;8.660;2024-01-30T03:06:02;4.90;99.90
4910;DHT22;2470;49.868;8.660;2024-01-30T03:08:28;4.90;99.90
4910;DHT22;2470;49.868;8.660;2024-01-30T03:10:53;4.80;99.90
4910;DHT22;2470;49.868;8.660;2024-01-30T03:13:19;4.80;99.90
4910;DHT22;2470;49.868;8.660;2024-01-30T03:15:45;4.80;99.90
4910;DHT22;2470;49.868;8.660;2024-01-30T03:18:10;4.70;99.90
4910;DHT22;2470;49.868;8.660;2024-01-30T03:20:36;4.70;99.90
4910;DHT22;2470;49.868;8.660;2024-01-30T03:23:01;4.70;99.90
4910;DHT22;2470;49.868;8.660;2024-01-30T03:25:27;4.70;99.90
4910;DHT22;2470;49.868;8.660;2024-01-30T03:27:52;4.70;99.90
4910;DHT22;2470;49.868;8.660;2024-01-30T03:30:18;4.60;99.90
4910;DHT22;2470;49.868;8.660;2024-01-30T03:32:44;4.60;99.90
4910;DHT22;2470;49.868;8.660;2024-01-30T03:35:09;4.60;99.90
4910;DHT22;2470;49.868;8.660;2024-01-30T03:37:35;4.60;99.90
4910;DHT22;2470;49.868;8.660;2024-01-30T03:40:02;4.60;99.90
4910;DHT22;2470;49.868;8.660;2024-01-30T03:42:28;4.60;99.90
4910;DHT22;2470;49.868;8.660;2024-01-30T03:44:53;4.60;99.90
4910;DHT22;2470;49.868;8.660;2024-01-30T03:47:20;4.50;99.90
4910;DHT22;2470;49.868;8.660;2024-01-30T03:49:46;4.50;99.90
4910;DHT22;2470;49.868;8.660;2024-01-30T03:52:12;4.50;99.90
4910;DHT22;2470;49.868;8.660;2024-01-30T03:54:37;4.50;99.90
4910;DHT22;2470;49.868;8.660;2024-01-30T03:57:03;4.50;99.90
4910;DHT22;2470;49.868;8.660;2024-01-30T03:59:29;4.40;99.90
4910;DHT22;2470;49.868;8.660;2024-01-30T04:01:54;4.40;99.90
4910;DHT22;2470;49.868;8.660;2024-01-30T04:04:20;4.40;99.90
4910;DHT22;2470;49.868;8.660;2024-01-30T04:06:46;4.40;99.90
4910;DHT22;2470;49.868;8.660;2024-01-30T04:09:13;4.40;99.90
4910;DHT22;2470;49.868;8.660;2024-01-30T04:11:39;4.40;99.90
4910;DHT22;2470;49.868;8.660;2024-01-30T04:14:05;4.40;99.90
4910;DHT22;2470;49.868;8.660;2024-01-30T04:16:30;4.40;99.90
4910;DHT22;2470;49.868;8.660;2024-01-30T04:18:56;4.40;99.90
4910;DHT22;2470;49.868;8.660;2024-01-30T04:21:21;4.40;99.90
4910;DHT22;2470;49.868;8.660;2024-01-30T04:23:47;4.40;99.90
4910;DHT22;2470;49.868;8.660;2024-01-30T04:26:13;4.40;99.90
4910;DHT22;2470;49.868;8.660;2024-01-30T04:28:41;4.40;99.90
4910;DHT22;2470;49.868;8.660;2024-01-30T04:31:07;4.40;99.90
4910;DHT22;2470;49.868;8.660;2024-01-30T04:33:32;4.40;99.90
4910;DHT22;2470;49.868;8.660;2024-01-30T04:35:58;4.40;99.90
4910;DHT22;2470;49.868;8.660;2024-01-30T04:38:23;4.30;99.90
4910;DHT22;2470;49.868;8.660;2024-01-30T04:40:49;4.30;99.90
4910;DHT22;2470;49.868;8.660;2024-01-30T04:43:14;4.30;99.90
4910;DHT22;2470;49.868;8.660;2024-01-30T04:45:41;4.30;99.90
4910;DHT22;2470;49.868;8.660;2024-01-30T04:48:07;4.30;99.90
4910;DHT22;2470;49.868;8.660;2024-01-30T04:50:32;4.30;99.90
4910;DHT22;2470;49.868;8.660;2024-01-30T04:52:58;4.30;99.90
4910;DHT22;2470;49.868;8.660;2024-01-30T04:55:23;4.30;99.90
4910;DHT22;2470;49.868;8.660;2024-01-30T04:57:49;4.30;99.90
4910;DHT22;2470;49.868;8.660;2024-01-30T05:00:15;4.20;99.90
4910;DHT22;2470;49.868;8.660;2024-01-30T05:02:41;4.30;99.90
4910;DHT22;2470;49.868;8.660;2024-01-30T05:05:06;4.20;99.90
4910;DHT22;2470;49.868;8.660;2024-01-30T05:07:33;4.20;99.90
4910;DHT22;2470;49.868;8.660;2024-01-30T05:09:58;4.20;99.90
4910;DHT22;2470;49.868;8.660;2024-01-30T05:12:24;4.20;99.90
4910;DHT22;2470;49.868;8.660;2024-01-30T05:14:49;4.20;99.90
4910;DHT22;2470;49.868;8.660;2024-01-30T05:17:15;4.20;99.90
4910;DHT22;2470;49.868;8.660;2024-01-30T05:19:40;4.20;99.90
4910;DHT22;2470;49.868;8.660;2024-01-30T05:22:06;4.20;99.90
4910;DHT22;2470;49.868;8.660;2024-01-30T05:24:31;4.20;99.90
4910;DHT22;2470;49.868;8.660;2024-01-30T05:26:57;4.20;99.90
4910;DHT22;2470;49.868;8.660;2024-01-30T05:29:23;4.20;99.90
4910;DHT22;2470;49.868;8.660;2024-01-30T05:31:49;4.20;99.90
4910;DHT22;2470;49.868;8.660;2024-01-30T05:34:15;4.20;99.90
4910;DHT22;2470;49.868;8.660;2024-01-30T05:36:41;4.20;99.90
4910;DHT22;2470;49.868;8.660;2024-01-30T05:39:06;4.20;99.90
4910;DHT22;2470;49.868;8.660;2024-01-30T05:41:32;4.20;99.90
4910;DHT22;2470;49.868;8.660;2024-01-30T05:43:58;4.20;99.90
4910;DHT22;2470;49.868;8.660;2024-01-30T05:46:23;4.20;99.90
4910;DHT22;2470;49.868;8.660;2024-01-30T05:48:49;4.20;99.90
4910;DHT22;2470;49.868;8.660;2024-01-30T05:51:14;4.10;99.90
4910;DHT22;2470;49.868;8.660;2024-01-30T05:53:40;4.10;99.90
4910;DHT22;2470;49.868;8.660;2024-01-30T05:56:05;4.10;99.90
4910;DHT22;2470;49.868;8.660;2024-01-30T05:58:31;4.10;99.90
4910;DHT22;2470;49.868;8.660;2024-01-30T06:00:57;4.20;99.90
4910;DHT22;2470;49.868;8.660;2024-01-30T06:03:23;4.10;99.90
4910;DHT22;2470;49.868;8.660;2024-01-30T06:05:48;4.10;99.90
4910;DHT22;2470;49.868;8.660;2024-01-30T06:08:14;4.10;99.90
4910;DHT22;2470;49.868;8.660;2024-01-30T06:10:39;4.20;99.90
4910;DHT22;2470;49.868;8.660;2024-01-30T06:13:05;4.10;99.90
4910;DHT22;2470;49.868;8.660;2024-01-30T06:15:31;4.10;99.90
4910;DHT22;2470;49.868;8.660;2024-01-30T06:17:58;4.10;99.90
4910;DHT22;2470;49.868;8.660;2024-01-30T06:20:23;4.10;99.90
4910;DHT22;2470;49.868;8.660;2024-01-30T06:22:49;4.00;99.90
4910;DHT22;2470;49.868;8.660;2024-01-30T06:25:14;4.00;99.90
4910;DHT22;2470;49.868;8.660;2024-01-30T06:27:41;4.00;99.90
4910;DHT22;2470;49.868;8.660;2024-01-30T06:30:07;4.00;99.90
4910;DHT22;2470;49.868;8.660;2024-01-30T06:32:32;4.10;99.90
4910;DHT22;2470;49.868;8.660;2024-01-30T06:35:00;4.00;99.90
4910;DHT22;2470;49.868;8.660;2024-01-30T06:37:26;4.00;99.90
4910;DHT22;2470;49.868;8.660;2024-01-30T06:39:51;4.00;99.90
4910;DHT22;2470;49.868;8.660;2024-01-30T06:42:18;4.10;99.90
4910;DHT22;2470;49.868;8.660;2024-01-30T06:44:43;4.10;99.90
4910;DHT22;2470;49.868;8.660;2024-01-30T06:47:09;4.10;99.90
4910;DHT22;2470;49.868;8.660;2024-01-30T06:49:35;4.10;99.90
4910;DHT22;2470;49.868;8.660;2024-01-30T06:52:06;4.10;99.90
4910;DHT22;2470;49.868;8.660;2024-01-30T06:54:32;4.10;99.90
4910;DHT22;2470;49.868;8.660;2024-01-30T06:56:58;4.10;99.90
4910;DHT22;2470;49.868;8.660;2024-01-30T06:59:24;4.10;99.90
4910;DHT22;2470;49.868;8.660;2024-01-30T07:01:49;4.10;99.90
4910;DHT22;2470;49.868;8.660;2024-01-30T07:04:15;4.10;99.90
4910;DHT22;2470;49.868;8.660;2024-01-30T07:06:41;4.10;99.90
4910;DHT22;2470;49.868;8.660;2024-01-30T07:09:07;4.10;99.90
4910;DHT22;2470;49.868;8.660;2024-01-30T07:11:32;4.20;99.90
4910;DHT22;2470;49.868;8.660;2024-01-30T07:13:58;4.20;99.90
4910;DHT22;2470;49.868;8.660;2024-01-30T07:16:23;4.20;99.90
4910;DHT22;2470;49.868;8.660;2024-01-30T07:18:49;4.20;99.90
4910;DHT22;2470;49.868;8.660;2024-01-30T07:21:15;4.20;99.90
4910;DHT22;2470;49.868;8.660;2024-01-30T07:23:40;4.20;99.90
4910;DHT22;2470;49.868;8.660;2024-01-30T07:26:07;4.20;99.90
4910;DHT22;2470;49.868;8.660;2024-01-30T07:28:34;4.20;99.90
4910;DHT22;2470;49.868;8.660;2024-01-30T07:31:00;4.20;99.90
4910;DHT22;2470;49.868;8.660;2024-01-30T07:33:26;4.30;99.90
4910;DHT22;2470;49.868;8.660;2024-01-30T07:35:54;4.20;99.90
4910;DHT22;2470;49.868;8.660;2024-01-30T07:38:20;4.30;99.90
4910;DHT22;2470;49.868;8.660;2024-01-30T07:40:46;4.30;99.90
4910;DHT22;2470;49.868;8.660;2024-01-30T07:43:11;4.40;99.90
4910;DHT22;2470;49.868;8.660;2024-01-30T07:45:37;4.40;99.90
4910;DHT22;2470;49.868;8.660;2024-01-30T07:48:04;4.40;99.90
4910;DHT22;2470;49.868;8.660;2024-01-30T07:50:30;4.50;99.90
4910;DHT22;2470;49.868;8.660;2024-01-30T07:52:59;4.50;99.90
4910;DHT22;2470;49.868;8.660;2024-01-30T07:55:31;4.50;99.90
4910;DHT22;2470;49.868;8.660;2024-01-30T07:57:58;4.60;99.90
4910;DHT22;2470;49.868;8.660;2024-01-30T08:00:24;4.60;99.90
4910;DHT22;2470;49.868;8.660;2024-01-30T08:02:50;4.60;99.90
4910;DHT22;2470;49.868;8.660;2024-01-30T08:05:15;4.60;99.90
4910;DHT22;2470;49.868;8.660;2024-01-30T08:07:41;4.70;99.90
4910;DHT22;2470;49.868;8.660;2024-01-30T08:10:08;4.70;99.90
4910;DHT22;2470;49.868;8.660;2024-01-30T08:12:33;4.70;99.90
4910;DHT22;2470;49.868;8.660;2024-01-30T08:14:59;4.80;99.90
4910;DHT22;2470;49.868;8.660;2024-01-30T08:17:24;4.80;99.90
4910;DHT22;2470;49.868;8.660;2024-01-30T08:19:50;4.80;99.90
4910;DHT22;2470;49.868;8.660;2024-01-30T08:22:15;4.80;99.90
4910;DHT22;2470;49.868;8.660;2024-01-30T08:24:41;4.90;99.90
4910;DHT22;2470;49.868;8.660;2024-01-30T08:27:07;4.90;99.90
4910;DHT22;2470;49.868;8.660;2024-01-30T08:29:35;4.90;99.90
4910;DHT22;2470;49.868;8.660;2024-01-30T08:32:01;5.00;99.90
4910;DHT22;2470;49.868;8.660;2024-01-30T08:34:26;5.00;99.90
4910;DHT22;2470;49.868;8.660;2024-01-30T08:36:52;5.10;99.90
4910;DHT22;2470;49.868;8.660;2024-01-30T08:39:18;5.10;99.90
4910;DHT22;2470;49.868;8.660;2024-01-30T08:41:43;5.20;99.90
4910;DHT22;2470;49.868;8.660;2024-01-30T08:44:09;5.30;99.90
4910;DHT22;2470;49.868;8.660;2024-01-30T08:46:36;5.40;99.90
4910;DHT22;2470;49.868;8.660;2024-01-30T08:49:02;5.50;99.90
4910;DHT22;2470;49.868;8.660;2024-01-30T08:51:28;5.60;99.90
4910;DHT22;2470;49.868;8.660;2024-01-30T08:53:53;5.70;99.90
4910;DHT22;2470;49.868;8.660;2024-01-30T08:56:19;5.80;99.90
4910;DHT22;2470;49.868;8.660;2024-01-30T08:58:44;5.90;99.90
4910;DHT22;2470;49.868;8.660;2024-01-30T09:01:10;5.90;99.90
4910;DHT22;2470;49.868;8.660;2024-01-30T09:03:35;6.00;99.90
4910;DHT22;2470;49.868;8.660;2024-01-30T09:06:11;6.10;99.90
4910;DHT22;2470;49.868;8.660;2024-01-30T09:08:37;6.10;99.90
4910;DHT22;2470;49.868;8.660;2024-01-30T09:11:11;6.10;99.90
4910;DHT22;2470;49.868;8.660;2024-01-30T09:13:37;6.20;99.90
4910;DHT22;2470;49.868;8.660;2024-01-30T09:16:03;6.30;99.90
4910;DHT22;2470;49.868;8.660;2024-01-30T09:18:29;6.40;99.90
4910;DHT22;2470;49.868;8.660;2024-01-30T09:20:54;6.40;99.90
4910;DHT22;2470;49.868;8.660;2024-01-30T09:23:20;6.40;99.90
4910;DHT22;2470;49.868;8.660;2024-01-30T09:25:45;6.40;99.90
4910;DHT22;2470;49.868;8.660;2024-01-30T09:28:11;6.50;99.90
4910;DHT22;2470;49.868;8.660;2024-01-30T09:30:36;6.50;99.90
4910;DHT22;2470;49.868;8.660;2024-01-30T09:33:02;6.60;99.90
4910;DHT22;2470;49.868;8.660;2024-01-30T09:35:28;6.70;99.90
4910;DHT22;2470;49.868;8.660;2024-01-30T09:37:54;6.70;99.90
4910;DHT22;2470;49.868;8.660;2024-01-30T09:40:19;6.80;99.90
4910;DHT22;2470;49.868;8.660;2024-01-30T09:42:47;6.90;99.90
4910;DHT22;2470;49.868;8.660;2024-01-30T09:45:14;6.90;99.90
4910;DHT22;2470;49.868;8.660;2024-01-30T09:47:41;7.00;99.90
4910;DHT22;2470;49.868;8.660;2024-01-30T09:50:11;7.10;99.90
4910;DHT22;2470;49.868;8.660;2024-01-30T09:52:37;7.20;99.90
4910;DHT22;2470;49.868;8.660;2024-01-30T09:55:03;7.30;99.90
4910;DHT22;2470;49.868;8.660;2024-01-30T09:57:29;7.30;99.90
4910;DHT22;2470;49.868;8.660;2024-01-30T09:59:54;7.40;99.90
4910;DHT22;2470;49.868;8.660;2024-01-30T10:02:20;7.50;99.90
4910;DHT22;2470;49.868;8.660;2024-01-30T10:04:50;7.50;99.90
4910;DHT22;2470;49.868;8.660;2024-01-30T10:07:17;7.50;99.90
4910;DHT22;2470;49.868;8.660;2024-01-30T10:09:42;7.60;99.90
4910;DHT22;2470;49.868;8.660;2024-01-30T10:12:11;7.60;99.90
4910;DHT22;2470;49.868;8.660;2024-01-30T10:14:41;7.70;99.90
4910;DHT22;2470;49.868;8.660;2024-01-30T10:17:11;7.80;99.90
4910;DHT22;2470;49.868;8.660;2024-01-30T10:19:39;7.80;99.90
4910;DHT22;2470;49.868;8.660;2024-01-30T10:22:05;7.90;99.90
4910;DHT22;2470;49.868;8.660;2024-01-30T10:24:33;7.80;99.90
4910;DHT22;2470;49.868;8.660;2024-01-30T10:26:58;7.90;99.90
4910;DHT22;2470;49.868;8.660;2024-01-30T10:29:24;8.00;99.90
4910;DHT22;2470;49.868;8.660;2024-01-30T10:34:25;8.10;99.90
4910;DHT22;2470;49.868;8.660;2024-01-30T10:39:24;8.20;99.90
4910;DHT22;2470;49.868;8.660;2024-01-30T10:41:53;8.40;99.90
4910;DHT22;2470;49.868;8.660;2024-01-30T10:44:22;8.30;99.90
4910;DHT22;2470;49.868;8.660;2024-01-30T10:46:56;8.20;99.90
4910;DHT22;2470;49.868;8.660;2024-01-30T10:49:25;8.30;99.90
4910;DHT22;2470;49.868;8.660;2024-01-30T10:51:52;8.30;99.90
4910;DHT22;2470;49.868;8.660;2024-01-30T10:54:18;8.40;99.90
4910;DHT22;2470;49.868;8.660;2024-01-30T10:56:45;8.40;99.90
4910;DHT22;2470;49.868;8.660;2024-01-30T10:59:11;8.50;99.90
4910;DHT22;2470;49.868;8.660;2024-01-30T11:01:38;8.50;99.90
4910;DHT22;2470;49.868;8.660;2024-01-30T11:04:04;8.50;99.90
4910;DHT22;2470;49.868;8.660;2024-01-30T11:06:30;8.50;99.90
4910;DHT22;2470;49.868;8.660;2024-01-30T11:09:05;8.50;99.90
4910;DHT22;2470;49.868;8.660;2024-01-30T11:11:55;8.40;99.90
4910;DHT22;2470;49.868;8.660;2024-01-30T11:14:25;8.60;99.90
4910;DHT22;2470;49.868;8.660;2024-01-30T11:16:51;8.50;99.90
4910;DHT22;2470;49.868;8.660;2024-01-30T11:19:23;8.60;99.90
4910;DHT22;2470;49.868;8.660;2024-01-30T11:21:50;8.70;99.90
4910;DHT22;2470;49.868;8.660;2024-01-30T11:24:19;8.70;99.90
4910;DHT22;2470;49.868;8.660;2024-01-30T11:26:45;8.90;99.90
4910;DHT22;2470;49.868;8.660;2024-01-30T11:29:13;9.00;99.90
4910;DHT22;2470;49.868;8.660;2024-01-30T11:31:39;9.00;99.90
4910;DHT22;2470;49.868;8.660;2024-01-30T11:34:05;9.00;99.90
4910;DHT22;2470;49.868;8.660;2024-01-30T11:36:32;9.10;99.90
4910;DHT22;2470;49.868;8.660;2024-01-30T11:39:00;9.20;99.90
4910;DHT22;2470;49.868;8.660;2024-01-30T11:41:25;9.30;99.90
4910;DHT22;2470;49.868;8.660;2024-01-30T11:43:52;9.40;99.90
4910;DHT22;2470;49.868;8.660;2024-01-30T11:46:18;9.50;99.90
4910;DHT22;2470;49.868;8.660;2024-01-30T11:48:43;9.60;99.90
4910;DHT22;2470;49.868;8.660;2024-01-30T11:51:09;9.70;99.90
4910;DHT22;2470;49.868;8.660;2024-01-30T11:53:34;9.80;99.90
4910;DHT22;2470;49.868;8.660;2024-01-30T11:56:00;9.80;99.90
4910;DHT22;2470;49.868;8.660;2024-01-30T11:58:26;9.90;99.90
4910;DHT22;2470;49.868;8.660;2024-01-30T12:00:57;9.90;99.90
4910;DHT22;2470;49.868;8.660;2024-01-30T12:03:23;10.00;99.90
4910;DHT22;2470;49.868;8.660;2024-01-30T12:05:55;10.10;99.90
4910;DHT22;2470;49.868;8.660;2024-01-30T12:08:22;10.10;99.90
4910;DHT22;2470;49.868;8.660;2024-01-30T12:10:58;10.20;99.90
4910;DHT22;2470;49.868;8.660;2024-01-30T12:13:25;10.30;99.90
4910;DHT22;2470;49.868;8.660;2024-01-30T12:15:51;10.30;99.90
4910;DHT22;2470;49.868;8.660;2024-01-30T12:18:19;10.30;99.90
4910;DHT22;2470;49.868;8.660;2024-01-30T12:20:45;10.30;99.90
4910;DHT22;2470;49.868;8.660;2024-01-30T12:23:12;10.40;99.90
4910;DHT22;2470;49.868;8.660;2024-01-30T12:25:38;10.40;99.90
4910;DHT22;2470;49.868;8.660;2024-01-30T12:28:03;10.50;99.90
4910;DHT22;2470;49.868;8.660;2024-01-30T12:30:29;10.60;99.90
4910;DHT22;2470;49.868;8.660;2024-01-30T12:32:55;10.70;99.90
4910;DHT22;2470;49.868;8.660;2024-01-30T12:35:20;10.80;99.90
4910;DHT22;2470;49.868;8.660;2024-01-30T12:37:47;10.90;99.90
4910;DHT22;2470;49.868;8.660;2024-01-30T12:40:17;11.00;99.90
4910;DHT22;2470;49.868;8.660;2024-01-30T12:42:43;11.20;99.90
4910;DHT22;2470;49.868;8.660;2024-01-30T12:45:11;11.50;99.90
4910;DHT22;2470;49.868;8.660;2024-01-30T12:47:37;11.60;99.90
4910;DHT22;2470;49.868;8.660;2024-01-30T12:50:02;11.90;99.90
4910;DHT22;2470;49.868;8.660;2024-01-30T12:52:28;12.10;99.90
4910;DHT22;2470;49.868;8.660;2024-01-30T12:54:54;12.00;99.90
4910;DHT22;2470;49.868;8.660;2024-01-30T12:57:20;11.90;99.90
4910;DHT22;2470;49.868;8.660;2024-01-30T12:59:46;12.00;99.90
4910;DHT22;2470;49.868;8.660;2024-01-30T13:02:12;11.90;99.90
4910;DHT22;2470;49.868;8.660;2024-01-30T13:04:38;11.90;99.90
4910;DHT22;2470;49.868;8.660;2024-01-30T13:07:04;11.80;99.90
4910;DHT22;2470;49.868;8.660;2024-01-30T13:09:30;11.80;99.90
4910;DHT22;2470;49.868;8.660;2024-01-30T13:11:57;11.60;99.90
4910;DHT22;2470;49.868;8.660;2024-01-30T13:14:22;11.60;99.90
4910;DHT22;2470;49.868;8.660;2024-01-30T13:16:48;11.90;99.90
4910;DHT22;2470;49.868;8.660;2024-01-30T13:19:14;12.20;99.90
4910;DHT22;2470;49.868;8.660;2024-01-30T13:21:39;12.40;99.90
4910;DHT22;2470;49.868;8.660;2024-01-30T13:24:05;12.70;99.90
4910;DHT22;2470;49.868;8.660;2024-01-30T13:26:32;13.20;99.90
4910;DHT22;2470;49.868;8.660;2024-01-30T13:28:58;13.70;99.90
4910;DHT22;2470;49.868;8.660;2024-01-30T13:31:23;13.70;99.90
4910;DHT22;2470;49.868;8.660;2024-01-30T13:33:49;13.90;99.90
4910;DHT22;2470;49.868;8.660;2024-01-30T13:36:15;13.80;99.50
4910;DHT22;2470;49.868;8.660;2024-01-30T13:38:43;13.80;99.70
4910;DHT22;2470;49.868;8.660;2024-01-30T13:41:09;13.60;99.40
4910;DHT22;2470;49.868;8.660;2024-01-30T13:43:34;13.40;99.70
4910;DHT22;2470;49.868;8.660;2024-01-30T13:46:00;13.20;99.90
4910;DHT22;2470;49.868;8.660;2024-01-30T13:48:25;13.00;99.90
4910;DHT22;2470;49.868;8.660;2024-01-30T13:50:51;13.00;99.90
4910;DHT22;2470;49.868;8.660;2024-01-30T13:53:16;12.70;99.90
4910;DHT22;2470;49.868;8.660;2024-01-30T13:55:42;12.60;99.90
4910;DHT22;2470;49.868;8.660;2024-01-30T13:58:08;12.50;99.90
4910;DHT22;2470;49.868;8.660;2024-01-30T14:00:33;12.50;99.90
4910;DHT22;2470;49.868;8.660;2024-01-30T14:02:59;12.40;99.90
4910;DHT22;2470;49.868;8.660;2024-01-30T14:05:25;12.30;99.90
4910;DHT22;2470;49.868;8.660;2024-01-30T14:07:54;12.10;99.90
4910;DHT22;2470;49.868;8.660;2024-01-30T14:10:20;12.00;99.90
4910;DHT22;2470;49.868;8.660;2024-01-30T14:12:46;11.80;99.90
4910;DHT22;2470;49.868;8.660;2024-01-30T14:15:13;11.70;99.90
4910;DHT22;2470;49.868;8.660;2024-01-30T14:17:40;11.60;99.90
4910;DHT22;2470;49.868;8.660;2024-01-30T14:20:06;11.50;99.90
4910;DHT22;2470;49.868;8.660;2024-01-30T14:22:33;11.40;99.90
4910;DHT22;2470;49.868;8.660;2024-01-30T14:25:00;11.30;99.90
4910;DHT22;2470;49.868;8.660;2024-01-30T14:27:25;11.30;99.90
4910;DHT22;2470;49.868;8.660;2024-01-30T14:29:51;11.30;99.90
4910;DHT22;2470;49.868;8.660;2024-01-30T14:32:16;11.20;99.90
4910;DHT22;2470;49.868;8.660;2024-01-30T14:34:42;11.20;99.90
4910;DHT22;2470;49.868;8.660;2024-01-30T14:37:08;11.10;99.90
4910;DHT22;2470;49.868;8.660;2024-01-30T14:39:33;11.00;99.90
4910;DHT22;2470;49.868;8.660;2024-01-30T14:41:59;11.00;99.90
4910;DHT22;2470;49.868;8.660;2024-01-30T14:44:25;11.00;99.90
4910;DHT22;2470;49.868;8.660;2024-01-30T14:46:51;11.00;99.90
4910;DHT22;2470;49.868;8.660;2024-01-30T14:49:16;10.90;99.90
4910;DHT22;2470;49.868;8.660;2024-01-30T14:51:42;10.90;99.90
4910;DHT22;2470;49.868;8.660;2024-01-30T14:54:08;10.90;99.90
4910;DHT22;2470;49.868;8.660;2024-01-30T14:56:33;10.90;99.90
4910;DHT22;2470;49.868;8.660;2024-01-30T14:59:00;10.80;99.90
4910;DHT22;2470;49.868;8.660;2024-01-30T15:01:25;10.70;99.90
4910;DHT22;2470;49.868;8.660;2024-01-30T15:03:51;10.70;99.90
4910;DHT22;2470;49.868;8.660;2024-01-30T15:06:17;10.70;99.90
4910;DHT22;2470;49.868;8.660;2024-01-30T15:08:43;10.60;99.90
4910;DHT22;2470;49.868;8.660;2024-01-30T15:11:08;10.60;99.90
4910;DHT22;2470;49.868;8.660;2024-01-30T15:13:34;10.60;99.90
4910;DHT22;2470;49.868;8.660;2024-01-30T15:15:59;10.50;99.90
4910;DHT22;2470;49.868;8.660;2024-01-30T15:18:27;10.50;99.90
4910;DHT22;2470;49.868;8.660;2024-01-30T15:20:53;10.40;99.90
4910;DHT22;2470;49.868;8.660;2024-01-30T15:23:18;10.40;99.90
4910;DHT22;2470;49.868;8.660;2024-01-30T15:25:43;10.40;99.90
4910;DHT22;2470;49.868;8.660;2024-01-30T15:28:09;10.40;99.90
4910;DHT22;2470;49.868;8.660;2024-01-30T15:30:35;10.40;99.90
4910;DHT22;2470;49.868;8.660;2024-01-30T15:33:01;10.40;99.90
4910;DHT22;2470;49.868;8.660;2024-01-30T15:35:30;10.50;99.90
4910;DHT22;2470;49.868;8.660;2024-01-30T15:37:55;10.50;99.90
4910;DHT22;2470;49.868;8.660;2024-01-30T15:40:21;10.50;99.90
4910;DHT22;2470;49.868;8.660;2024-01-30T15:42:46;10.50;99.90
4910;DHT22;2470;49.868;8.660;2024-01-30T15:45:12;10.50;99.90
4910;DHT22;2470;49.868;8.660;2024-01-30T15:47:37;10.50;99.90
4910;DHT22;2470;49.868;8.660;2024-01-30T15:50:04;10.50;99.90
4910;DHT22;2470;49.868;8.660;2024-01-30T15:52:30;10.50;99.90
4910;DHT22;2470;49.868;8.660;2024-01-30T15:54:55;10.50;99.90
4910;DHT22;2470;49.868;8.660;2024-01-30T15:57:21;10.50;99.90
4910;DHT22;2470;49.868;8.660;2024-01-30T15:59:46;10.50;99.90
4910;DHT22;2470;49.868;8.660;2024-01-30T16:02:12;10.50;99.90
4910;DHT22;2470;49.868;8.660;2024-01-30T16:04:39;10.50;99.90
4910;DHT22;2470;49.868;8.660;2024-01-30T16:07:05;10.60;99.90
4910;DHT22;2470;49.868;8.660;2024-01-30T16:09:30;10.60;99.90
4910;DHT22;2470;49.868;8.660;2024-01-30T16:11:56;10.60;99.90